Time;durP1;ratioP1;P1;durP2;ratioP2;P2;SDS_P1;SDS_P2;PMS_P1;PMS_P2;Temp;Humidity;BMP_temperature;BMP_pressure;BME280_temperature;BME280_humidity;BME280_pressure;Samples;Min_cycle;Max_cycle;Signal;HPM_P1;HPM_P2
2023/09/27 00:00:34;;;;;;;;;;;;;;;17.94;78.91;101634.50;4113573;28;19933;-67
2023/09/27 00:02:38;;;;;;;;;;;;;;;17.89;78.75;101637.00;4113489;28;20013;-68
2023/09/27 00:04:40;;;;;;;;;;;;;;;17.86;78.68;101639.28;4114235;28;20016;-68
2023/09/27 00:06:42;;;;;;;;;;;;;;;17.84;79.04;101634.03;4114223;28;20016;-68
2023/09/27 00:08:44;;;;;;;;;;;;;;;17.82;78.98;101636.94;4114640;28;20357;-66
2023/09/27 00:10:46;;;;;;;;;;;;;;;17.81;79.13;101632.53;4113763;28;20030;-67
2023/09/27 00:12:48;;;;;;;;;;;;;;;17.80;79.49;101632.72;4113340;28;20021;-66
2023/09/27 00:14:50;;;;;;;;;;;;;;;17.80;79.54;101638.19;4113547;28;20029;-67
2023/09/27 00:16:51;;;;;;;;;;;;;;;17.76;79.21;101637.75;4114138;28;20021;-67
2023/09/27 00:18:54;;;;;;;;;;;;;;;17.75;79.03;101632.50;4113742;28;20368;-67
2023/09/27 00:20:56;;;;;;;;;;;;;;;17.73;79.16;101635.44;4113429;28;20484;-66
2023/09/27 00:22:58;;;;;;;;;;;;;;;17.70;78.96;101638.56;4113941;28;20013;-67
2023/09/27 00:25:00;;;;;;;;;;;;;;;17.68;79.31;101637.06;4114021;28;20016;-66
2023/09/27 00:27:02;;;;;;;;;;;;;;;17.65;80.49;101628.25;4112824;28;20086;-67
2023/09/27 00:29:04;;;;;;;;;;;;;;;17.68;81.38;101627.00;4113429;28;20017;-67
2023/09/27 00:31:07;;;;;;;;;;;;;;;17.71;81.98;101631.22;4113238;28;20013;-67
2023/09/27 00:33:09;;;;;;;;;;;;;;;17.72;81.65;101627.44;4112976;28;20041;-64
2023/09/27 00:35:18;;;;;;;;;;;;;;;17.71;80.31;101636.69;4113215;28;20048;-66
2023/09/27 00:37:23;;;;;;;;;;;;;;;17.71;79.93;101631.22;4105994;28;20020;-66
2023/09/27 00:39:25;;;;;;;;;;;;;;;17.73;79.73;101632.69;4112345;28;19926;-65
2023/09/27 00:41:27;;;;;;;;;;;;;;;17.72;79.61;101633.75;4112668;28;19984;-65
2023/09/27 00:43:29;;;;;;;;;;;;;;;17.70;78.89;101626.81;4113808;28;20021;-65
2023/09/27 00:45:31;;;;;;;;;;;;;;;17.66;78.76;101631.81;4111002;28;20040;-65
2023/09/27 00:47:33;;;;;;;;;;;;;;;17.62;79.44;101627.81;4113090;28;20025;-67
2023/09/27 00:49:35;;;;;;;;;;;;;;;17.61;79.32;101637.06;4112496;28;20017;-66
2023/09/27 00:51:38;;;;;;;;;;;;;;;17.59;78.76;101633.69;4113327;28;20036;-65
2023/09/27 00:53:39;;;;;;;;;;;;;;;17.57;78.81;101635.75;4113752;28;20607;-67
2023/09/27 00:55:41;;;;;;;;;;;;;;;17.54;78.74;101634.28;4112005;28;19922;-67
2023/09/27 00:57:43;;;;;;;;;;;;;;;17.50;78.22;101643.91;4113550;28;20005;-68
2023/09/27 00:59:45;;;;;;;;;;;;;;;17.45;78.46;101632.75;4120384;28;19921;-67
2023/09/27 01:01:47;;;;;;;;;;;;;;;17.43;79.52;101632.97;4112499;28;20028;-66
2023/09/27 01:03:49;;;;;;;;;;;;;;;17.41;79.73;101634.19;4113440;28;20036;-66
2023/09/27 01:05:51;;;;;;;;;;;;;;;17.38;80.51;101630.00;4112113;28;20012;-66
2023/09/27 01:07:55;;;;;;;;;;;;;;;17.37;80.31;101625.56;4106438;28;20017;-66
2023/09/27 01:09:57;;;;;;;;;;;;;;;17.34;80.25;101634.16;4112679;28;20005;-66
2023/09/27 01:12:01;;;;;;;;;;;;;;;17.33;80.67;101629.72;4104684;28;20017;-66
2023/09/27 01:14:03;;;;;;;;;;;;;;;17.31;80.10;101626.38;4127549;28;20040;-67
2023/09/27 01:16:05;;;;;;;;;;;;;;;17.28;79.49;101627.59;4113954;28;20018;-67
2023/09/27 01:18:07;;;;;;;;;;;;;;;17.27;79.28;101627.81;4115745;28;20016;-67
2023/09/27 01:20:12;;;;;;;;;;;;;;;17.23;79.45;101618.34;4116113;28;20775;-67
2023/09/27 01:22:16;;;;;;;;;;;;;;;17.20;79.60;101618.75;4116360;28;20358;-65
2023/09/27 01:24:20;;;;;;;;;;;;;;;17.19;79.47;101626.06;4116140;28;20025;-67
2023/09/27 01:26:22;;;;;;;;;;;;;;;17.19;79.32;101622.50;4116628;28;20341;-66
2023/09/27 01:28:24;;;;;;;;;;;;;;;17.21;79.41;101626.75;4116481;28;20357;-66
2023/09/27 01:30:32;;;;;;;;;;;;;;;17.21;79.30;101629.47;4108703;28;20022;-67
2023/09/27 01:32:34;;;;;;;;;;;;;;;17.22;79.17;101622.94;4114899;28;20386;-66
2023/09/27 01:34:36;;;;;;;;;;;;;;;17.23;78.87;101630.09;4114180;28;20365;-66
2023/09/27 01:36:38;;;;;;;;;;;;;;;17.22;78.97;101633.03;4116018;28;20012;-63
2023/09/27 01:38:40;;;;;;;;;;;;;;;17.21;78.81;101626.75;4123133;28;20536;-67
2023/09/27 01:40:44;;;;;;;;;;;;;;;17.20;78.58;101633.22;4130242;28;20376;-65
2023/09/27 01:42:46;;;;;;;;;;;;;;;17.15;78.38;101632.13;4122670;28;20476;-65
2023/09/27 01:44:48;;;;;;;;;;;;;;;17.10;78.92;101640.94;4115912;28;20033;-67
2023/09/27 01:46:50;;;;;;;;;;;;;;;17.05;79.24;101641.53;4115807;28;20021;-65
2023/09/27 01:48:52;;;;;;;;;;;;;;;17.03;79.55;101640.03;4130500;28;20019;-65
2023/09/27 01:50:54;;;;;;;;;;;;;;;17.01;80.10;101642.13;4114064;28;20026;-67
2023/09/27 01:52:55;;;;;;;;;;;;;;;17.00;80.92;101635.81;4121895;28;20012;-66
2023/09/27 01:54:57;;;;;;;;;;;;;;;16.99;81.33;101636.88;4114789;28;20021;-65
2023/09/27 01:57:03;;;;;;;;;;;;;;;16.99;81.09;101638.72;4116139;28;20087;-67
2023/09/27 01:59:05;;;;;;;;;;;;;;;16.98;80.95;101634.34;4107295;28;20475;-67
2023/09/27 02:01:08;;;;;;;;;;;;;;;16.95;80.58;101632.84;4115394;28;20427;-63
2023/09/27 02:03:10;;;;;;;;;;;;;;;16.92;80.14;101636.78;4107935;28;20016;-64
2023/09/27 02:05:12;;;;;;;;;;;;;;;16.89;79.70;101630.91;4115661;28;20025;-66
2023/09/27 02:07:14;;;;;;;;;;;;;;;16.86;79.78;101628.56;4116132;28;20053;-66
2023/09/27 02:09:16;;;;;;;;;;;;;;;16.85;80.58;101630.41;4115855;28;20012;-66
2023/09/27 02:11:19;;;;;;;;;;;;;;;16.84;80.94;101626.00;4107132;28;20017;-66
2023/09/27 02:13:23;;;;;;;;;;;;;;;16.83;80.20;101627.03;4130303;28;20028;-65
2023/09/27 02:15:25;;;;;;;;;;;;;;;16.83;79.93;101628.91;4114125;28;20018;-65
2023/09/27 02:17:26;;;;;;;;;;;;;;;16.82;79.44;101632.69;4098285;28;20577;-68
2023/09/27 02:19:28;;;;;;;;;;;;;;;16.78;79.20;101637.69;4113632;28;19961;-66
2023/09/27 02:21:30;;;;;;;;;;;;;;;16.74;79.02;101629.06;4115444;28;19941;-65
2023/09/27 02:23:32;;;;;;;;;;;;;;;16.71;79.03;101634.91;4115968;28;20032;-67
2023/09/27 02:25:33;;;;;;;;;;;;;;;16.67;79.04;101638.22;4123029;28;20032;-68
2023/09/27 02:27:36;;;;;;;;;;;;;;;16.65;79.82;101629.41;4106139;28;19962;-66
2023/09/27 02:29:39;;;;;;;;;;;;;;;16.67;80.03;101627.31;4115629;28;20004;-67
2023/09/27 02:31:41;;;;;;;;;;;;;;;16.65;79.61;101627.50;4115714;28;20555;-65
2023/09/27 02:33:43;;;;;;;;;;;;;;;16.65;79.04;101626.69;4115717;28;19966;-66
2023/09/27 02:35:45;;;;;;;;;;;;;;;16.62;78.79;101627.06;4107761;28;20041;-67
2023/09/27 02:37:48;;;;;;;;;;;;;;;16.59;78.70;101631.03;4113936;28;20599;-66
2023/09/27 02:39:51;;;;;;;;;;;;;;;16.58;78.57;101632.91;4130007;28;20028;-67
2023/09/27 02:41:52;;;;;;;;;;;;;;;16.57;78.62;101628.50;4114885;28;19926;-65
2023/09/27 02:43:54;;;;;;;;;;;;;;;16.56;78.75;101636.84;4115370;28;20026;-65
2023/09/27 02:45:57;;;;;;;;;;;;;;;16.56;78.83;101639.59;4115131;28;20425;-64
2023/09/27 02:47:59;;;;;;;;;;;;;;;16.54;78.58;101645.25;4115060;28;20020;-66
2023/09/27 02:50:04;;;;;;;;;;;;;;;16.56;78.67;101643.16;4113174;28;20014;-66
2023/09/27 02:52:07;;;;;;;;;;;;;;;16.56;79.12;101647.78;4113139;28;20106;-65
2023/09/27 02:54:09;;;;;;;;;;;;;;;16.54;79.05;101649.84;4113280;28;20020;-68
2023/09/27 02:56:12;;;;;;;;;;;;;;;16.50;79.78;101660.28;4115321;28;20360;-65
2023/09/27 02:58:15;;;;;;;;;;;;;;;16.49;79.54;101655.88;4113493;28;20348;-67
2023/09/27 03:00:18;;;;;;;;;;;;;;;16.42;79.34;101656.84;4121391;28;20037;-65
2023/09/27 03:02:23;;;;;;;;;;;;;;;16.39;79.90;101652.63;4105625;28;19977;-67
2023/09/27 03:04:25;;;;;;;;;;;;;;;16.39;80.35;101645.31;4114629;28;20010;-67
2023/09/27 03:06:27;;;;;;;;;;;;;;;16.38;80.41;101645.50;4113852;28;20024;-66
2023/09/27 03:08:29;;;;;;;;;;;;;;;16.39;79.72;101655.34;4115306;28;20013;-67
2023/09/27 03:10:32;;;;;;;;;;;;;;;16.41;79.59;101653.28;4112875;28;20024;-67
2023/09/27 03:12:33;;;;;;;;;;;;;;;16.39;79.32;101656.22;4114268;28;20056;-67
2023/09/27 03:14:35;;;;;;;;;;;;;;;16.38;79.59;101667.31;4121031;28;19964;-65
2023/09/27 03:16:39;;;;;;;;;;;;;;;16.38;80.10;101662.69;4114156;28;20429;-65
2023/09/27 03:18:44;;;;;;;;;;;;;;;16.35;80.16;101654.06;4113734;28;20019;-65
2023/09/27 03:20:47;;;;;;;;;;;;;;;16.31;80.91;101655.47;4128939;28;20008;-67
2023/09/27 03:22:49;;;;;;;;;;;;;;;16.29;82.34;101643.94;4114280;28;20436;-66
2023/09/27 03:24:51;;;;;;;;;;;;;;;16.26;82.34;101647.88;4114074;28;20021;-68
2023/09/27 03:26:53;;;;;;;;;;;;;;;16.21;82.07;101647.63;4113146;28;20052;-65
2023/09/27 03:28:55;;;;;;;;;;;;;;;16.20;82.03;101651.38;4113419;28;20017;-65
2023/09/27 03:30:58;;;;;;;;;;;;;;;16.18;82.05;101650.72;4119287;28;20029;-67
2023/09/27 03:33:01;;;;;;;;;;;;;;;16.16;82.25;101650.06;4112240;28;20024;-65
2023/09/27 03:35:04;;;;;;;;;;;;;;;16.15;82.04;101645.66;4112949;28;20049;-66
2023/09/27 03:37:09;;;;;;;;;;;;;;;16.09;82.11;101639.09;4114558;28;20024;-66
2023/09/27 03:39:11;;;;;;;;;;;;;;;16.10;82.48;101639.94;4112659;28;20010;-65
2023/09/27 03:41:13;;;;;;;;;;;;;;;16.11;82.59;101636.16;4113551;28;20026;-66
2023/09/27 03:43:15;;;;;;;;;;;;;;;16.10;81.85;101634.50;4114899;28;20020;-66
2023/09/27 03:45:17;;;;;;;;;;;;;;;16.09;81.66;101635.53;4113039;28;20029;-67
2023/09/27 03:47:18;;;;;;;;;;;;;;;16.10;81.38;101646.22;4112786;28;20033;-65
2023/09/27 03:49:21;;;;;;;;;;;;;;;16.11;81.11;101645.22;4114380;28;19965;-67
2023/09/27 03:51:25;;;;;;;;;;;;;;;16.08;80.96;101640.13;4120441;28;20016;-65
2023/09/27 03:53:27;;;;;;;;;;;;;;;16.08;80.99;101640.13;4128713;28;20013;-66
2023/09/27 03:55:29;;;;;;;;;;;;;;;16.09;82.25;101633.63;4112909;28;20016;-67
2023/09/27 03:57:31;;;;;;;;;;;;;;;16.08;82.09;101631.97;4113893;28;20461;-65
2023/09/27 03:59:34;;;;;;;;;;;;;;;16.07;81.47;101630.25;4112355;28;20480;-67
2023/09/27 04:01:36;;;;;;;;;;;;;;;16.08;81.30;101631.97;4105549;28;20017;-65
2023/09/27 04:03:38;;;;;;;;;;;;;;;16.08;81.34;101634.69;4112145;28;20452;-65
2023/09/27 04:05:40;;;;;;;;;;;;;;;16.07;81.06;101637.59;4114036;28;20045;-65
2023/09/27 04:07:43;;;;;;;;;;;;;;;16.08;81.11;101645.59;4114082;28;20061;-68
2023/09/27 04:09:45;;;;;;;;;;;;;;;16.12;81.22;101646.88;4111794;28;20021;-67
2023/09/27 04:11:47;;;;;;;;;;;;;;;16.08;81.36;101629.25;4113324;28;20441;-67
2023/09/27 04:13:49;;;;;;;;;;;;;;;16.08;82.13;101629.25;4113644;28;20029;-66
2023/09/27 04:15:52;;;;;;;;;;;;;;;16.08;83.04;101629.25;4113504;28;20028;-68
2023/09/27 04:17:53;;;;;;;;;;;;;;;16.09;82.27;101633.63;4113558;28;20016;-65
2023/09/27 04:19:56;;;;;;;;;;;;;;;16.10;81.80;101629.06;4113284;28;19933;-67
2023/09/27 04:21:59;;;;;;;;;;;;;;;16.09;81.94;101633.63;4113372;28;20009;-67
2023/09/27 04:24:04;;;;;;;;;;;;;;;16.10;81.53;101626.31;4113315;28;19994;-65
2023/09/27 04:26:06;;;;;;;;;;;;;;;16.10;81.31;101639.94;4113471;28;20014;-66
2023/09/27 04:28:09;;;;;;;;;;;;;;;16.11;81.32;101637.03;4113310;28;20033;-66
2023/09/27 04:30:13;;;;;;;;;;;;;;;16.13;81.56;101651.31;4113003;28;20012;-65
2023/09/27 04:32:15;;;;;;;;;;;;;;;16.14;81.36;101655.69;4112967;28;20017;-65
2023/09/27 04:34:17;;;;;;;;;;;;;;;16.14;81.13;101663.03;4113151;28;20020;-65
2023/09/27 04:36:19;;;;;;;;;;;;;;;16.12;81.17;101665.94;4113380;28;20009;-67
2023/09/27 04:38:22;;;;;;;;;;;;;;;16.14;80.90;101668.50;4113138;28;20049;-67
2023/09/27 04:40:25;;;;;;;;;;;;;;;16.11;80.80;101667.00;4111957;28;20013;-66
2023/09/27 04:42:27;;;;;;;;;;;;;;;16.09;81.13;101666.34;4112189;28;20009;-65
2023/09/27 04:44:29;;;;;;;;;;;;;;;16.06;80.75;101666.72;4113337;28;19957;-65
2023/09/27 04:46:32;;;;;;;;;;;;;;;16.03;81.28;101673.41;4113459;28;20009;-65
2023/09/27 04:48:34;;;;;;;;;;;;;;;16.01;81.07;101680.91;4113187;28;20082;-65
2023/09/27 04:50:35;;;;;;;;;;;;;;;16.02;80.65;101679.88;4119536;28;20041;-66
2023/09/27 04:52:38;;;;;;;;;;;;;;;16.00;80.59;101676.50;4127835;28;20016;-67
2023/09/27 04:54:39;;;;;;;;;;;;;;;15.96;80.88;101680.63;4113211;28;20029;-67
2023/09/27 04:56:43;;;;;;;;;;;;;;;15.98;81.42;101699.53;4112899;28;20033;-66
2023/09/27 04:58:45;;;;;;;;;;;;;;;16.00;81.39;101694.72;4112819;28;20017;-66
2023/09/27 05:00:47;;;;;;;;;;;;;;;16.00;81.55;101697.44;4112240;28;20017;-67
2023/09/27 05:02:49;;;;;;;;;;;;;;;16.00;81.83;101690.13;4111880;28;20021;-67
2023/09/27 05:04:51;;;;;;;;;;;;;;;15.98;81.12;101689.47;4111723;28;19929;-67
2023/09/27 05:06:53;;;;;;;;;;;;;;;15.96;81.38;101691.53;4112648;28;20016;-64
2023/09/27 05:08:55;;;;;;;;;;;;;;;15.93;81.45;101697.38;4113265;28;20512;-67
2023/09/27 05:10:57;;;;;;;;;;;;;;;15.93;81.90;101696.53;4112934;28;20361;-66
2023/09/27 05:12:59;;;;;;;;;;;;;;;15.92;81.89;101700.28;4112945;28;20476;-65
2023/09/27 05:15:01;;;;;;;;;;;;;;;15.90;81.86;101700.47;4113327;28;20028;-66
2023/09/27 05:17:03;;;;;;;;;;;;;;;15.88;81.99;101702.53;4113134;28;20448;-66
2023/09/27 05:19:05;;;;;;;;;;;;;;;15.89;82.17;101706.94;4113186;28;20021;-63
2023/09/27 05:21:06;;;;;;;;;;;;;;;15.88;81.92;101708.00;4112297;28;20045;-66
2023/09/27 05:23:08;;;;;;;;;;;;;;;15.86;81.78;101704.59;4112167;28;19973;-66
2023/09/27 05:25:10;;;;;;;;;;;;;;;15.85;81.84;101725.56;4113660;28;19925;-64
2023/09/27 05:27:13;;;;;;;;;;;;;;;15.84;81.96;101721.13;4112645;28;20020;-65
2023/09/27 05:29:16;;;;;;;;;;;;;;;15.87;82.06;101732.69;4112439;28;20020;-64
2023/09/27 05:31:19;;;;;;;;;;;;;;;15.87;81.95;101732.69;4111846;28;20025;-65
2023/09/27 05:33:21;;;;;;;;;;;;;;;15.85;81.81;101732.88;4112162;28;19968;-66
2023/09/27 05:35:23;;;;;;;;;;;;;;;15.83;82.05;101740.38;4112744;28;20044;-67
2023/09/27 05:37:24;;;;;;;;;;;;;;;15.82;82.24;101725.09;4110870;28;20012;-66
2023/09/27 05:39:26;;;;;;;;;;;;;;;15.83;82.93;101740.38;4112034;28;20005;-67
2023/09/27 05:41:28;;;;;;;;;;;;;;;15.83;83.31;101735.78;4112748;28;20374;-66
2023/09/27 05:43:30;;;;;;;;;;;;;;;15.85;83.92;101736.44;4113260;28;20029;-66
2023/09/27 05:45:34;;;;;;;;;;;;;;;15.86;83.50;101734.56;4112903;28;20021;-66
2023/09/27 05:47:36;;;;;;;;;;;;;;;15.87;83.53;101738.16;4113350;28;20013;-66
2023/09/27 05:49:39;;;;;;;;;;;;;;;15.88;83.35;101742.53;4112607;28;20020;-66
2023/09/27 05:51:41;;;;;;;;;;;;;;;15.86;83.39;101742.72;4113163;28;20028;-64
2023/09/27 05:53:43;;;;;;;;;;;;;;;15.88;83.40;101745.25;4113124;28;20017;-66
2023/09/27 05:55:47;;;;;;;;;;;;;;;15.87;83.79;101746.31;4113470;28;20024;-66
2023/09/27 05:57:49;;;;;;;;;;;;;;;15.87;83.58;101747.16;4112461;28;20017;-64
2023/09/27 05:59:50;;;;;;;;;;;;;;;15.88;83.63;101757.03;4113130;28;20457;-67
2023/09/27 06:01:54;;;;;;;;;;;;;;;15.88;83.64;101761.59;4112359;28;20037;-65
2023/09/27 06:03:56;;;;;;;;;;;;;;;15.90;83.74;101765.00;4115700;28;20016;-66
2023/09/27 06:05:58;;;;;;;;;;;;;;;15.92;84.47;101762.94;4123028;28;19968;-67
2023/09/27 06:08:00;;;;;;;;;;;;;;;15.93;84.71;101762.75;4115780;28;20371;-67
2023/09/27 06:10:01;;;;;;;;;;;;;;;15.95;85.00;101765.28;4115475;28;20029;-67
2023/09/27 06:12:04;;;;;;;;;;;;;;;15.97;85.20;101764.06;4115286;28;20008;-67
2023/09/27 06:14:09;;;;;;;;;;;;;;;15.99;85.52;101770.19;4115552;28;20026;-68
2023/09/27 06:16:16;;;;;;;;;;;;;;;16.00;85.57;101769.16;4116056;28;20483;-67
2023/09/27 06:18:20;;;;;;;;;;;;;;;16.01;86.75;101768.09;4115518;28;20009;-67
2023/09/27 06:20:22;;;;;;;;;;;;;;;16.02;86.67;101775.25;4115110;28;20017;-67
2023/09/27 06:22:25;;;;;;;;;;;;;;;16.07;87.04;101776.56;4115639;28;20031;-68
2023/09/27 06:24:29;;;;;;;;;;;;;;;16.09;86.80;101772.63;4115617;28;20665;-66
2023/09/27 06:26:31;;;;;;;;;;;;;;;16.10;86.96;101768.88;4115642;28;20488;-68
2023/09/27 06:28:33;;;;;;;;;;;;;;;16.12;87.13;101768.66;4113841;28;20012;-66
2023/09/27 06:30:35;;;;;;;;;;;;;;;16.15;87.23;101774.59;4115261;28;20706;-66
2023/09/27 06:32:37;;;;;;;;;;;;;;;16.18;87.38;101774.22;4114675;28;20355;-67
2023/09/27 06:34:40;;;;;;;;;;;;;;;16.21;87.41;101775.72;4115325;28;20016;-67
2023/09/27 06:36:43;;;;;;;;;;;;;;;16.24;87.79;101785.38;4115673;28;20036;-67
2023/09/27 06:38:45;;;;;;;;;;;;;;;16.28;87.75;101784.81;4115200;28;20009;-66
2023/09/27 06:40:50;;;;;;;;;;;;;;;16.32;87.64;101788.88;4115529;28;20436;-67
2023/09/27 06:42:52;;;;;;;;;;;;;;;16.37;87.79;101788.28;4115158;28;20020;-66
2023/09/27 06:44:54;;;;;;;;;;;;;;;16.38;88.02;101793.56;4115201;28;20360;-66
2023/09/27 06:46:56;;;;;;;;;;;;;;;16.42;88.04;101793.19;4115793;28;20550;-64
2023/09/27 06:49:00;;;;;;;;;;;;;;;16.45;88.47;101782.72;4115488;28;20050;-66
2023/09/27 06:51:05;;;;;;;;;;;;;;;16.49;88.46;101791.38;4108756;28;20025;-65
2023/09/27 06:53:07;;;;;;;;;;;;;;;16.55;88.48;101788.75;4109429;28;20024;-65
2023/09/27 06:55:11;;;;;;;;;;;;;;;16.59;88.40;101786.47;4112122;28;20009;-64
2023/09/27 06:57:14;;;;;;;;;;;;;;;16.65;88.57;101780.25;4113418;28;20044;-65
2023/09/27 06:59:16;;;;;;;;;;;;;;;16.69;88.10;101778.84;4114273;28;20021;-64
2023/09/27 07:01:19;;;;;;;;;;;;;;;16.75;88.67;101780.78;4113974;28;20021;-65
2023/09/27 07:03:24;;;;;;;;;;;;;;;16.81;88.63;101786.50;4114368;28;20017;-66
2023/09/27 07:05:26;;;;;;;;;;;;;;;16.85;89.18;101785.94;4114721;28;20435;-65
2023/09/27 07:07:30;;;;;;;34.78;24.38;;;;;;;16.90;89.45;101785.38;4113938;28;19922;-65
2023/09/27 07:09:33;;;;;;;;;;;;;;;16.94;89.39;101783.94;4114068;28;20306;-65
2023/09/27 07:11:35;;;;;;;;;;;;;;;16.98;89.66;101785.25;4114177;28;20448;-64
2023/09/27 07:13:37;;;;;;;;;;;;;;;17.02;89.69;101785.69;4114629;28;20369;-64
2023/09/27 07:15:39;;;;;;;;;;;;;;;17.06;89.66;101784.28;4114609;28;20021;-67
2023/09/27 07:17:44;;;;;;;;;;;;;;;17.09;89.83;101779.28;4115556;28;20016;-65
2023/09/27 07:19:50;;;;;;;;;;;;;;;17.14;90.10;101786.03;4114844;28;20451;-64
2023/09/27 07:21:54;;;;;;;;;;;;;;;17.18;89.97;101784.59;4114464;28;20009;-64
2023/09/27 07:23:59;;;;;;;;;;;;;;;17.21;89.65;101779.59;4114830;28;20033;-64
2023/09/27 07:26:05;;;;;;;;;;;;;;;17.25;89.40;101780.88;4114984;28;20359;-67
2023/09/27 07:28:07;;;;;;;;;;;;;;;17.30;89.39;101777.56;4114274;28;20605;-64
2023/09/27 07:30:10;;;;;;;;;;;;;;;17.35;89.55;101780.56;4113306;28;20452;-65
2023/09/27 07:32:12;;;;;;;;;;;;;;;17.40;89.74;101780.00;4114397;28;20028;-65
2023/09/27 07:34:14;;;;;;;;;;;;;;;17.42;89.60;101778.72;4114638;28;19926;-70
2023/09/27 07:36:17;;;;;;;;;;;;;;;17.49;89.43;101778.78;4114440;28;20371;-72
2023/09/27 07:38:21;;;;;;;;;;;;;;;17.54;89.61;101778.19;4114548;28;20033;-70
2023/09/27 07:40:24;;;;;;;;;;;;;;;17.58;89.59;101776.75;4113636;28;19921;-71
2023/09/27 07:42:26;;;;;;;;;;;;;;;17.63;89.96;101775.13;4113029;28;20052;-71
2023/09/27 07:44:32;;;;;;;;;;;;;;;17.68;90.06;101773.66;4115208;28;20341;-72
2023/09/27 07:46:36;;;;;;;;;;;;;;;17.71;89.30;101759.63;4114279;28;20020;-70
2023/09/27 07:48:42;;;;;;;;;;;;;;;17.75;88.51;101766.38;4113915;28;20467;-72
2023/09/27 07:50:47;;;;;;;;;;;;;;;17.80;88.58;101761.16;4110818;28;20591;-70
2023/09/27 07:52:51;;;;;;;40.65;26.50;;;;;;;17.84;87.63;101759.72;4110632;28;20937;-70
2023/09/27 07:54:58;;;;;;;;;;;;;;;17.88;86.61;101758.28;4113849;28;20305;-69
2023/09/27 07:57:01;;;;;;;;;;;;;;;17.92;86.01;101756.00;4113821;28;20012;-70
2023/09/27 07:59:05;;;;;;;;;;;;;;;17.95;85.38;101761.91;4113093;28;20028;-70
2023/09/27 08:01:07;;;;;;;;;;;;;;;18.00;85.33;101759.41;4113131;28;20025;-69
2023/09/27 08:03:13;;;;;;;;;;;;;;;18.04;84.67;101759.88;4113113;28;20017;-72
2023/09/27 08:05:17;;;;;;;40.45;26.63;;;;;;;18.08;84.12;101752.94;4117840;28;24485;-69
2023/09/27 08:07:19;;;;;;;;;;;;;;;18.14;84.11;101756.75;4113864;28;20278;-69
2023/09/27 08:09:22;;;;;;;;;;;;;;;18.18;84.20;101750.69;4111534;28;20432;-66
2023/09/27 08:11:27;;;;;;;;;;;;;;;18.23;84.03;101746.47;4113383;28;20029;-66
2023/09/27 08:13:31;;;;;;;;;;;;;;;18.27;83.32;101756.81;4113225;28;20024;-64
2023/09/27 08:15:33;;;;;;;;;;;;;;;18.31;83.08;101752.63;4113878;28;20440;-65
2023/09/27 08:17:36;;;;;;;;;;;;;;;18.36;82.65;101755.59;4113660;28;20817;-66
2023/09/27 08:19:38;;;;;;;35.78;25.77;;;;;;;18.43;82.81;101762.97;4111893;28;21219;-67
2023/09/27 08:21:40;;;;;;;;;;;;;;;18.49;82.93;101759.44;4113187;28;20291;-65
2023/09/27 08:23:42;;;;;;;;;;;;;;;18.54;82.74;101765.97;4113884;28;20013;-66
2023/09/27 08:25:44;;;;;;;;;;;;;;;18.60;82.50;101758.00;4113372;28;20345;-66
2023/09/27 08:27:50;;;;;;;;;;;;;;;18.67;82.28;101761.59;4113426;28;20008;-66
2023/09/27 08:29:54;;;;;;;;;;;;;;;18.73;82.23;101753.41;4113154;28;19922;-65
2023/09/27 08:31:56;;;;;;;;;;;;;;;18.83;82.17;101763.13;4113446;28;20013;-66
2023/09/27 08:34:01;;;;;;;;;;;;;;;18.91;82.13;101763.78;4113240;28;20460;-66
2023/09/27 08:36:03;;;;;;;;;;;;;;;19.01;81.96;101757.91;4114071;28;20008;-67
2023/09/27 08:38:08;;;;;;;;;;;;;;;19.12;81.80;101753.69;4113911;28;20009;-66
2023/09/27 08:40:12;;;;;;;38.28;26.33;;;;;;;19.22;81.38;101762.34;4111488;28;21287;-66
2023/09/27 08:42:15;;;;;;;;;;;;;;;19.34;80.84;101758.97;4113012;28;20283;-66
2023/09/27 08:44:16;;;;;;;;;;;;;;;19.46;80.42;101768.25;4113725;28;20488;-66
2023/09/27 08:46:20;;;;;;;;;;;;;;;19.58;79.97;101763.00;4113706;28;20028;-66
2023/09/27 08:48:24;;;;;;;;;;;;;;;19.70;79.56;101765.91;4112496;28;20020;-65
2023/09/27 08:50:26;;;;;;;;;;;;;;;19.84;79.34;101767.59;4112158;28;19930;-66
2023/09/27 08:52:28;;;;;;;;;;;;;;;19.97;78.73;101759.34;4112986;28;20016;-66
2023/09/27 08:54:30;;;;;;;;;;;;;;;20.11;78.22;101767.53;4113074;28;20021;-65
2023/09/27 08:56:31;;;;;;;;;;;;;;;20.26;78.13;101770.84;4113196;28;20025;-65
2023/09/27 08:58:34;;;;;;;;;;;;;;;20.39;77.65;101767.25;4113086;28;20021;-65
2023/09/27 09:00:36;;;;;;;36.03;25.33;;;;;;;20.54;76.80;101764.22;4111618;28;24543;-64
2023/09/27 09:02:39;;;;;;;;;;;;;;;20.67;76.49;101763.31;4112050;28;20733;-64
2023/09/27 09:04:42;;;;;;;;;;;;;;;20.80;75.84;101776.13;4112925;28;20018;-65
2023/09/27 09:06:44;;;;;;;;;;;;;;;20.91;75.48;101772.69;4112980;28;20021;-64
2023/09/27 09:08:46;;;;;;;;;;;;;;;21.02;75.21;101761.00;4113186;28;20479;-65
2023/09/27 09:10:48;;;;;;;;;;;;;;;21.14;74.60;101763.03;4112860;28;20884;-65
2023/09/27 09:12:50;;;;;;;;;;;;;;;21.24;74.05;101752.41;4112627;28;20009;-65
2023/09/27 09:14:54;;;;;;;;;;;;;;;21.34;73.63;101751.88;4113553;28;20017;-65
2023/09/27 09:16:56;;;;;;;;;;;;;;;21.41;73.28;101744.41;4112482;28;20408;-65
2023/09/27 09:19:00;;;;;;;;;;;;;;;21.54;72.78;101755.31;4113126;28;20029;-64
2023/09/27 09:21:09;;;;;;;;;;;;;;;21.61;72.63;101747.00;4112239;28;20021;-65
2023/09/27 09:23:12;;;;;;;;;;;;;;;21.67;71.89;101751.59;4112752;28;20005;-65
2023/09/27 09:25:14;;;;;;;;;;;;;;;21.76;71.60;101746.66;4112947;28;20016;-65
2023/09/27 09:27:16;;;;;;;;;;;;;;;21.83;71.33;101746.59;4113163;28;20009;-64
2023/09/27 09:29:20;;;;;;;;;;;;;;;21.88;71.20;101738.47;4112963;28;20017;-66
2023/09/27 09:31:22;;;;;;;;;;;;;;;21.92;70.73;101743.28;4111597;28;20032;-64
2023/09/27 09:33:24;;;;;;;;;;;;;;;21.95;70.35;101740.09;4118807;28;20020;-65
2023/09/27 09:35:38;;;;;;;;;;;;;;;22.00;70.16;101746.81;4113075;28;20025;-65
2023/09/27 09:37:48;;;;;;;38.40;26.42;;;;;;;22.02;69.79;101740.03;4111318;28;24572;-62
2023/09/27 09:39:51;;;;;;;;;;;;;;;22.04;69.52;101737.88;4113269;28;20296;-65
2023/09/27 09:41:58;;;;;;;;;;;;;;;22.08;69.64;101738.25;4115401;28;20388;-64
2023/09/27 09:44:00;;;;;;;;;;;;;;;22.08;69.46;101735.50;4116515;28;20016;-65
2023/09/27 09:46:03;;;;;;;;;;;;;;;22.09;69.36;101734.44;4116202;28;20012;-65
2023/09/27 09:48:06;;;;;;;;;;;;;;;22.10;69.11;101733.34;4115760;28;20025;-65
2023/09/27 09:50:08;;;;;;;;;;;;;;;22.10;69.13;101734.22;4115446;28;20009;-65
2023/09/27 09:52:14;;;;;;;;;;;;;;;22.10;69.18;101731.47;4115623;28;20376;-64
2023/09/27 09:54:19;;;;;;;;;;;;;;;22.10;68.89;101727.84;4107411;28;20024;-64
2023/09/27 09:56:22;;;;;;;;;;;;;;;22.08;69.25;101725.34;4116304;28;20004;-65
2023/09/27 09:58:30;;;;;;;36.92;26.92;;;;;;;22.07;69.27;101720.94;4114660;28;20021;-64
2023/09/27 10:00:31;;;;;;;;;;;;;;;22.04;69.15;101713.13;4114725;28;20284;-65
2023/09/27 10:02:33;;;;;;;;;;;;;;;22.03;69.35;101725.19;4114911;28;19973;-64
2023/09/27 10:04:35;;;;;;;;;;;;;;;22.01;69.32;101719.09;4115573;28;20037;-64
2023/09/27 10:06:37;;;;;;;;;;;;;;;22.00;69.50;101725.66;4114703;28;20028;-65
2023/09/27 10:08:43;;;;;;;;;;;;;;;21.98;69.52;101715.97;4114281;28;20013;-64
2023/09/27 10:10:45;;;;;;;;;;;;;;;21.97;69.52;101717.84;4113557;28;20025;-65
2023/09/27 10:12:47;;;;;;;63.45;33.72;;;;;;;21.95;69.79;101712.59;4108000;28;24893;-64
2023/09/27 10:14:54;;;;;;;42.10;28.67;;;;;;;21.95;69.49;101712.59;4111210;28;20319;-64
2023/09/27 10:16:56;;;;;;;28.80;23.30;;;;;;;21.93;69.94;101706.47;4113910;28;20277;-64
2023/09/27 10:18:58;;;;;;;;;;;;;;;21.93;69.93;101706.47;4115122;28;20316;-66
2023/09/27 10:21:04;;;;;;;61.75;32.00;;;;;;;21.93;70.51;101702.91;4112760;28;24542;-66
2023/09/27 10:23:10;;;;;;;50.40;29.42;;;;;;;21.93;70.08;101691.91;4114675;28;20284;-66
2023/09/27 10:25:31;;;;;;;;;;;;;;;21.93;70.30;101691.91;4115887;28;20280;-65
2023/09/27 10:28:08;;;;;;;45.40;28.40;;;;;;;21.95;70.54;101692.50;4115359;28;20640;-65